createdAt,value
2022-11-18T00:01:52.519Z,2.40
2022-11-18T00:04:19.280Z,2.67
2022-11-18T00:06:47.309Z,2.78
2022-11-18T00:09:14.326Z,2.70
2022-11-18T00:11:41.341Z,2.88
2022-11-18T00:14:13.148Z,2.65
2022-11-18T00:16:39.859Z,2.90
2022-11-18T00:19:06.597Z,2.47
2022-11-18T00:21:33.392Z,2.78
2022-11-18T00:24:01.560Z,3.28
2022-11-18T00:26:28.252Z,2.93
2022-11-18T00:28:54.962Z,2.47
2022-11-18T00:31:21.685Z,2.55
2022-11-18T00:33:48.410Z,3.20
2022-11-18T00:36:15.166Z,2.78
2022-11-18T00:38:42.174Z,2.55
2022-11-18T00:41:12.639Z,3.10
2022-11-18T00:43:39.758Z,3.20
2022-11-18T00:46:08.288Z,2.78
2022-11-18T00:48:35.267Z,2.83
2022-11-18T00:51:08.716Z,2.70
2022-11-18T00:53:35.561Z,3.17
2022-11-18T00:56:02.258Z,2.50
2022-11-18T00:58:30.398Z,3.25
2022-11-18T01:00:57.238Z,3.27
2022-11-18T01:03:24.180Z,3.03
2022-11-18T01:05:50.948Z,2.72
2022-11-18T01:08:17.925Z,3.50
2022-11-18T01:10:44.689Z,2.72
2022-11-18T01:13:17.430Z,2.58
2022-11-18T01:15:48.785Z,3.13
2022-11-18T01:18:15.975Z,2.83
2022-11-18T01:20:42.971Z,2.92
2022-11-18T01:23:09.791Z,2.80
2022-11-18T01:25:36.800Z,3.03
2022-11-18T01:28:04.153Z,2.58
2022-11-18T01:30:33.639Z,2.78
2022-11-18T01:33:02.161Z,2.47
2022-11-18T01:35:29.071Z,3.00
2022-11-18T01:37:55.791Z,2.28
2022-11-18T01:40:22.474Z,2.42
2022-11-18T01:42:49.212Z,2.92
2022-11-18T01:45:25.056Z,2.90
2022-11-18T01:47:56.916Z,2.70
2022-11-18T01:50:25.906Z,2.65
2022-11-18T01:55:25.650Z,2.65
2022-11-18T01:57:58.285Z,2.70
2022-11-18T02:00:25.050Z,2.60
2022-11-18T02:02:51.864Z,2.20
2022-11-18T02:05:19.052Z,3.13
2022-11-18T02:07:47.256Z,2.85
2022-11-18T02:10:23.643Z,2.40
2022-11-18T02:12:52.363Z,2.42
2022-11-18T02:15:22.224Z,2.30
2022-11-18T02:17:57.182Z,3.05
2022-11-18T02:20:34.603Z,2.53
2022-11-18T02:23:36.699Z,3.08
2022-11-18T02:26:26.085Z,2.45
2022-11-18T02:29:03.625Z,2.60
2022-11-18T02:31:35.076Z,2.30
2022-11-18T02:34:06.520Z,3.13
2022-11-18T02:36:41.431Z,2.50
2022-11-18T02:39:14.896Z,2.60
2022-11-18T02:41:44.158Z,2.90
2022-11-18T02:44:14.872Z,2.97
2022-11-18T02:46:45.284Z,2.47
2022-11-18T02:49:17.399Z,3.40
2022-11-18T02:51:46.605Z,2.50
2022-11-18T02:56:42.275Z,3.10
2022-11-18T02:59:08.977Z,2.55
2022-11-18T03:01:37.419Z,2.40
2022-11-18T03:04:04.509Z,2.70
2022-11-18T03:06:36.898Z,2.70
2022-11-18T03:09:10.955Z,2.20
2022-11-18T03:11:50.040Z,2.47
2022-11-18T03:14:27.324Z,2.30
2022-11-18T03:16:59.470Z,2.35
2022-11-18T03:19:34.559Z,2.70
2022-11-18T03:22:09.596Z,2.13
2022-11-18T03:24:40.738Z,2.50
2022-11-18T03:27:12.783Z,2.63
2022-11-18T03:29:44.524Z,2.53
2022-11-18T03:32:17.447Z,2.47
2022-11-18T03:34:46.432Z,2.05
2022-11-18T03:39:46.311Z,2.53
2022-11-18T03:42:16.617Z,2.60
2022-11-18T03:44:52.053Z,2.30
2022-11-18T03:47:26.064Z,2.75
2022-11-18T03:49:57.629Z,2.53
2022-11-18T03:52:28.165Z,2.33
2022-11-18T03:54:58.053Z,2.08
2022-11-18T03:57:30.749Z,2.58
2022-11-18T04:00:06.323Z,3.17
2022-11-18T04:02:34.713Z,2.40
2022-11-18T04:05:04.071Z,2.60
2022-11-18T04:07:34.383Z,2.47
2022-11-18T04:10:08.585Z,2.30
2022-11-18T04:12:40.201Z,2.72
2022-11-18T04:15:07.918Z,2.22
2022-11-18T04:17:35.949Z,2.90
2022-11-18T04:20:02.859Z,2.53
2022-11-18T04:22:29.584Z,2.30
2022-11-18T04:24:56.274Z,3.22
2022-11-18T04:27:23.217Z,2.35
2022-11-18T04:29:49.892Z,1.92
2022-11-18T04:32:16.544Z,3.10
2022-11-18T04:34:44.562Z,2.47
2022-11-18T04:37:11.224Z,2.42
2022-11-18T04:39:37.924Z,2.40
2022-11-18T04:42:04.854Z,2.38
2022-11-18T04:44:33.410Z,2.80
2022-11-18T04:47:02.233Z,2.55
2022-11-18T04:49:29.072Z,2.30
2022-11-18T04:51:57.399Z,2.70
2022-11-18T04:54:25.124Z,2.40
2022-11-18T04:56:52.518Z,2.22
2022-11-18T04:59:21.579Z,2.38
2022-11-18T05:01:48.609Z,3.10
2022-11-18T05:04:16.967Z,2.45
2022-11-18T05:06:43.947Z,2.58
2022-11-18T05:09:12.447Z,2.95
2022-11-18T05:11:39.280Z,2.65
2022-11-18T05:14:06.006Z,2.83
2022-11-18T05:16:32.753Z,2.92
2022-11-18T05:18:59.452Z,2.90
2022-11-18T05:21:26.160Z,2.67
2022-11-18T05:23:52.863Z,2.47
2022-11-18T05:26:21.019Z,2.38
2022-11-18T05:28:47.759Z,2.60
2022-11-18T05:31:16.208Z,2.50
2022-11-18T05:33:44.374Z,2.55
2022-11-18T05:36:12.936Z,2.37
2022-11-18T05:38:40.006Z,2.90
2022-11-18T05:41:07.013Z,2.42
2022-11-18T05:43:36.236Z,3.40
2022-11-18T05:46:03.693Z,2.60
2022-11-18T05:48:30.601Z,2.85
2022-11-18T05:50:57.299Z,2.67
2022-11-18T05:53:25.248Z,2.72
2022-11-18T05:55:56.531Z,3.67
2022-11-18T05:58:23.213Z,2.70
2022-11-18T06:00:54.467Z,2.65
2022-11-18T06:03:29.293Z,2.60
2022-11-18T06:06:00.105Z,2.60
2022-11-18T06:08:31.468Z,3.25
2022-11-18T06:10:59.413Z,2.55
2022-11-18T06:13:30.106Z,2.45
2022-11-18T06:15:58.290Z,3.40
2022-11-18T06:18:28.574Z,2.70
2022-11-18T06:20:57.721Z,2.63
2022-11-18T06:23:24.475Z,3.17
2022-11-18T06:25:51.212Z,2.75
2022-11-18T06:28:18.908Z,2.72
2022-11-18T06:30:45.663Z,2.88
2022-11-18T06:33:13.691Z,2.80
2022-11-18T06:35:42.068Z,3.50
2022-11-18T06:38:08.808Z,2.70
2022-11-18T06:40:35.488Z,2.58
2022-11-18T06:43:06.153Z,3.20
2022-11-18T06:45:32.826Z,4.07
2022-11-18T06:47:59.801Z,3.20
2022-11-18T06:50:28.168Z,3.55
2022-11-18T06:52:54.845Z,3.17
2022-11-18T06:55:21.711Z,3.50
2022-11-18T06:57:48.471Z,3.17
2022-11-18T07:00:16.528Z,3.05
2022-11-18T07:02:43.217Z,3.07
2022-11-18T07:05:10.147Z,3.42
2022-11-18T07:07:42.023Z,3.42
2022-11-18T07:10:09.948Z,3.10
2022-11-18T07:12:36.685Z,3.10
2022-11-18T07:15:03.807Z,3.22
2022-11-18T07:17:30.513Z,3.85
2022-11-18T07:19:57.275Z,2.78
2022-11-18T07:22:23.996Z,3.90
2022-11-18T07:24:52.029Z,3.65
2022-11-18T07:27:18.796Z,3.63
2022-11-18T07:29:45.504Z,3.22
2022-11-18T07:32:12.243Z,4.32
2022-11-18T07:34:38.940Z,3.92
2022-11-18T07:37:05.702Z,3.40
2022-11-18T07:39:32.441Z,3.50
2022-11-18T07:42:00.497Z,3.97
2022-11-18T07:44:27.276Z,4.63
2022-11-18T07:46:53.988Z,3.67
2022-11-18T07:49:20.811Z,4.10
2022-11-18T07:51:47.628Z,4.15
2022-11-18T07:54:14.997Z,3.75
2022-11-18T07:56:41.815Z,3.90
2022-11-18T07:59:10.078Z,4.03
2022-11-18T08:01:36.994Z,3.70
2022-11-18T08:04:08.957Z,4.85
2022-11-18T08:06:36.924Z,4.10
2022-11-18T08:09:04.896Z,4.30
2022-11-18T08:11:31.718Z,3.42
2022-11-18T08:13:58.432Z,4.38
2022-11-18T08:16:26.857Z,4.75
2022-11-18T08:18:54.013Z,4.57
2022-11-18T08:21:22.594Z,4.25
2022-11-18T08:23:50.496Z,4.45
2022-11-18T08:26:17.560Z,4.88
2022-11-18T08:28:45.641Z,3.42
2022-11-18T08:31:14.346Z,3.57
2022-11-18T08:33:42.504Z,4.72
2022-11-18T08:36:10.483Z,4.50
2022-11-18T08:38:37.544Z,5.25
2022-11-18T08:41:04.642Z,4.95
2022-11-18T08:43:31.370Z,4.80
2022-11-18T08:45:58.087Z,5.45
2022-11-18T08:48:24.808Z,4.05
2022-11-18T08:50:53.141Z,4.75
2022-11-18T08:53:19.847Z,4.82
2022-11-18T08:55:46.602Z,6.10
2022-11-18T08:58:13.315Z,4.10
2022-11-18T09:00:40.118Z,4.53
2022-11-18T09:03:06.788Z,4.90
2022-11-18T09:05:33.508Z,4.47
2022-11-18T09:08:01.558Z,4.93
2022-11-18T09:10:28.260Z,3.80
2022-11-18T09:13:06.957Z,4.72
2022-11-18T09:15:41.579Z,4.45
2022-11-18T09:18:09.247Z,4.18
2022-11-18T09:20:36.244Z,4.55
2022-11-18T09:23:04.258Z,4.53
2022-11-18T09:25:31.005Z,4.50
2022-11-18T09:27:57.683Z,5.25
2022-11-18T09:30:24.388Z,4.07
2022-11-18T09:32:51.182Z,3.67
2022-11-18T09:35:17.916Z,4.20
2022-11-18T09:37:44.641Z,4.18
2022-11-18T09:40:17.591Z,4.00
2022-11-18T09:42:56.259Z,4.20
2022-11-18T09:45:26.838Z,3.90
2022-11-18T09:47:57.807Z,3.53
2022-11-18T09:50:48.336Z,4.22
2022-11-18T09:53:18.753Z,3.75
2022-11-18T09:55:47.705Z,3.65
2022-11-18T10:00:43.883Z,3.40
2022-11-18T10:03:15.684Z,2.47
2022-11-18T10:05:47.892Z,3.15
2022-11-18T10:08:21.904Z,3.42
2022-11-18T10:10:58.004Z,2.97
2022-11-18T10:13:38.652Z,2.83
2022-11-18T10:16:19.013Z,2.80
2022-11-18T10:19:00.138Z,2.47
2022-11-18T10:21:38.024Z,2.67
2022-11-18T10:24:12.292Z,2.90
2022-11-18T10:26:41.526Z,3.20
2022-11-18T10:29:08.875Z,3.78
2022-11-18T10:31:37.587Z,2.67
2022-11-18T10:34:04.407Z,3.17
2022-11-18T10:36:32.394Z,2.50
2022-11-18T10:39:13.558Z,2.63
2022-11-18T10:41:46.328Z,2.53
2022-11-18T10:44:37.746Z,2.30
2022-11-18T10:47:23.564Z,2.75
2022-11-18T10:49:50.963Z,2.78
2022-11-18T10:52:17.621Z,2.40
2022-11-18T10:54:44.530Z,2.42
2022-11-18T10:57:20.509Z,2.95
2022-11-18T10:59:49.737Z,2.97
2022-11-18T11:02:18.942Z,2.70
2022-11-18T11:04:47.202Z,3.55
2022-11-18T11:07:24.562Z,3.38
2022-11-18T11:10:00.892Z,3.28
2022-11-18T11:12:32.523Z,3.20
2022-11-18T11:15:03.971Z,3.67
2022-11-18T11:17:35.535Z,3.90
2022-11-18T11:20:06.748Z,3.53
2022-11-18T11:22:33.692Z,3.38
2022-11-18T11:25:00.368Z,3.22
2022-11-18T11:30:43.527Z,2.75
2022-11-18T11:33:21.887Z,3.40
2022-11-18T11:35:57.848Z,2.30
2022-11-18T11:38:35.471Z,2.40
2022-11-18T11:41:12.440Z,3.15
2022-11-18T11:43:54.419Z,3.33
2022-11-18T11:46:28.153Z,2.80
2022-11-18T11:49:01.492Z,2.78
2022-11-18T11:51:32.923Z,4.03
2022-11-18T11:54:16.222Z,3.15
2022-11-18T11:56:47.467Z,4.45
2022-11-18T11:59:23.968Z,4.07
2022-11-18T12:02:19.204Z,3.35
2022-11-18T12:04:50.639Z,2.95
2022-11-18T12:07:21.408Z,3.10
2022-11-18T12:10:08.503Z,2.95
2022-11-18T12:12:42.093Z,2.50
2022-11-18T12:15:25.647Z,3.38
2022-11-18T12:17:59.295Z,2.42
2022-11-18T12:20:41.469Z,2.72
2022-11-18T12:23:14.089Z,3.10
2022-11-18T12:25:51.853Z,4.43
2022-11-18T12:28:25.391Z,3.35
2022-11-18T12:31:41.666Z,3.35
2022-11-18T12:34:27.618Z,3.05
2022-11-18T12:36:55.099Z,2.95
2022-11-18T12:39:49.656Z,3.83
2022-11-18T12:42:36.745Z,3.50
2022-11-18T12:45:46.765Z,2.88
2022-11-18T12:48:38.836Z,3.10
2022-11-18T12:51:44.152Z,3.95
2022-11-18T12:54:38.320Z,3.95
2022-11-18T12:57:20.945Z,4.05
2022-11-18T12:59:47.860Z,3.88
2022-11-18T13:02:21.826Z,4.32
2022-11-18T13:05:06.501Z,3.58
2022-11-18T13:07:38.766Z,3.47
2022-11-18T13:10:20.155Z,3.78
2022-11-18T13:12:46.893Z,4.40
2022-11-18T13:15:13.588Z,3.97
2022-11-18T13:17:41.656Z,5.30
2022-11-18T13:20:21.269Z,4.77
2022-11-18T13:22:50.328Z,4.10
2022-11-18T13:25:24.317Z,4.35
2022-11-18T13:27:58.899Z,4.20
2022-11-18T13:30:26.593Z,3.53
2022-11-18T13:32:57.558Z,4.28
2022-11-18T13:35:26.707Z,3.75
2022-11-18T13:37:55.630Z,4.80
2022-11-18T13:42:50.827Z,3.95
2022-11-18T13:45:17.806Z,3.80
2022-11-18T13:47:47.978Z,3.47
2022-11-18T13:50:19.329Z,3.83
2022-11-18T13:52:53.089Z,3.88
2022-11-18T13:55:23.247Z,4.82
2022-11-18T13:57:52.474Z,5.00
2022-11-18T14:00:24.392Z,4.07
2022-11-18T14:02:56.759Z,4.63
2022-11-18T14:05:24.055Z,4.35
2022-11-18T14:08:03.977Z,4.00
2022-11-18T14:10:38.069Z,4.65
2022-11-18T14:13:20.212Z,6.00
2022-11-18T14:15:47.074Z,5.07
2022-11-18T14:18:27.092Z,5.13
2022-11-18T14:20:54.682Z,4.97
2022-11-18T14:23:28.248Z,4.95
2022-11-18T14:25:56.116Z,4.53
2022-11-18T14:28:26.670Z,4.13
2022-11-18T14:31:02.694Z,4.18
2022-11-18T14:33:33.836Z,4.55
2022-11-18T14:36:03.432Z,4.43
2022-11-18T14:41:26.416Z,4.03
2022-11-18T14:43:53.090Z,4.30
2022-11-18T14:46:19.880Z,4.80
2022-11-18T14:48:46.743Z,4.65
2022-11-18T14:51:14.787Z,5.00
2022-11-18T14:53:43.744Z,4.63
2022-11-18T14:56:15.861Z,4.78
2022-11-18T14:58:42.607Z,5.60
2022-11-18T15:01:11.925Z,5.07
2022-11-18T15:03:39.029Z,8.55
2022-11-18T15:06:13.882Z,6.25
2022-11-18T15:08:41.910Z,5.60
2022-11-18T15:11:10.046Z,4.57
2022-11-18T15:13:36.846Z,5.23
2022-11-18T15:16:13.428Z,5.95
2022-11-18T15:18:40.284Z,5.00
2022-11-18T15:21:07.025Z,5.55
2022-11-18T15:23:33.732Z,5.80
2022-11-18T15:26:00.570Z,4.93
2022-11-18T15:28:28.649Z,5.80
2022-11-18T15:30:55.416Z,7.47
2022-11-18T15:33:22.128Z,7.28
2022-11-18T15:35:49.084Z,7.13
2022-11-18T15:38:15.748Z,6.63
2022-11-18T15:40:42.450Z,5.65
2022-11-18T15:43:09.236Z,5.70
2022-11-18T15:45:37.415Z,6.80
2022-11-18T15:48:04.412Z,5.65
2022-11-18T15:50:31.266Z,6.05
2022-11-18T15:52:58.160Z,5.82
2022-11-18T15:55:24.886Z,6.13
2022-11-18T15:57:51.563Z,6.53
2022-11-18T16:00:18.903Z,6.50
2022-11-18T16:02:47.239Z,6.07
2022-11-18T16:05:14.183Z,6.97
2022-11-18T16:07:40.990Z,6.90
2022-11-18T16:10:09.789Z,6.35
2022-11-18T16:12:36.527Z,5.72
2022-11-18T16:15:03.363Z,7.55
2022-11-18T16:17:30.371Z,8.13
2022-11-18T16:19:58.535Z,6.75
2022-11-18T16:22:25.524Z,7.05
2022-11-18T16:24:53.425Z,7.22
2022-11-18T16:27:20.878Z,7.95
2022-11-18T16:29:49.378Z,7.63
2022-11-18T16:32:16.324Z,7.18
2022-11-18T16:34:43.012Z,7.57
2022-11-18T16:37:11.034Z,7.38
2022-11-18T16:39:37.755Z,7.55
2022-11-18T16:42:09.037Z,7.75
2022-11-18T16:44:36.131Z,7.28
2022-11-18T16:47:06.460Z,7.38
2022-11-18T16:49:37.513Z,7.40
2022-11-18T16:52:04.519Z,7.40
2022-11-18T16:54:33.682Z,9.95
2022-11-18T16:57:00.384Z,8.32
2022-11-18T16:59:29.988Z,7.53
2022-11-18T17:01:58.415Z,7.85
2022-11-18T17:04:26.924Z,8.05
2022-11-18T17:06:54.431Z,9.02
2022-11-18T17:09:22.944Z,9.95
2022-11-18T17:11:52.033Z,9.32
2022-11-18T17:16:45.805Z,8.65
2022-11-18T17:19:15.217Z,8.05
2022-11-18T17:21:42.468Z,9.00
2022-11-18T17:24:10.267Z,9.13
2022-11-18T17:26:36.975Z,9.25
2022-11-18T17:29:04.957Z,8.65
2022-11-18T17:31:31.668Z,8.00
2022-11-18T17:33:58.371Z,7.63
2022-11-18T17:36:26.709Z,7.57
2022-11-18T17:38:55.233Z,7.32
2022-11-18T17:41:23.606Z,7.32
2022-11-18T17:43:53.730Z,6.97
2022-11-18T17:46:22.986Z,6.65
2022-11-18T17:48:49.748Z,7.05
2022-11-18T17:51:16.450Z,7.20
2022-11-18T17:53:43.682Z,7.65
2022-11-18T17:56:10.398Z,8.00
2022-11-18T17:58:37.111Z,7.85
2022-11-18T18:01:07.084Z,7.38
2022-11-18T18:03:35.152Z,7.60
2022-11-18T18:06:02.251Z,10.02
2022-11-18T18:08:28.976Z,11.80
2022-11-18T18:11:01.262Z,10.20
2022-11-18T18:13:28.329Z,9.18
2022-11-18T18:16:04.318Z,8.30
2022-11-18T18:18:31.036Z,7.57
2022-11-18T18:21:01.170Z,8.35
2022-11-18T18:23:27.959Z,8.05
2022-11-18T18:25:54.729Z,8.18
2022-11-18T18:28:21.431Z,8.25
2022-11-18T18:30:57.497Z,7.38
2022-11-18T18:33:24.249Z,8.20
2022-11-18T18:35:50.953Z,9.75
2022-11-18T18:38:19.258Z,9.30
2022-11-18T18:40:45.921Z,8.27
2022-11-18T18:43:12.944Z,9.02
2022-11-18T18:45:39.923Z,8.70
2022-11-18T18:48:06.784Z,8.25
2022-11-18T18:50:33.547Z,9.77
2022-11-18T18:53:00.321Z,9.10
2022-11-18T18:55:28.377Z,9.88
2022-11-18T18:57:55.079Z,9.30
2022-11-18T19:00:21.880Z,11.30
2022-11-18T19:02:48.841Z,9.98
2022-11-18T19:05:15.734Z,11.70
2022-11-18T19:07:42.614Z,10.77
2022-11-18T19:10:09.977Z,12.02
2022-11-18T19:12:38.036Z,10.95
2022-11-18T19:15:05.621Z,13.10
2022-11-18T19:17:32.564Z,11.68
2022-11-18T19:19:59.349Z,11.40
2022-11-18T19:22:29.315Z,12.20
2022-11-18T19:24:57.863Z,9.85
2022-11-18T19:27:25.327Z,11.18
2022-11-18T19:29:53.329Z,12.07
2022-11-18T19:32:20.031Z,10.77
2022-11-18T19:34:46.785Z,7.28
2022-11-18T19:37:13.481Z,11.23
2022-11-18T19:39:40.201Z,11.52
2022-11-18T19:42:06.934Z,10.57
2022-11-18T19:44:33.685Z,11.73
2022-11-18T19:47:01.740Z,10.25
2022-11-18T19:49:28.419Z,11.93
2022-11-18T19:51:55.089Z,12.20
2022-11-18T19:54:21.966Z,12.60
2022-11-18T19:56:48.657Z,12.32
2022-11-18T19:59:15.464Z,10.70
2022-11-18T20:01:42.289Z,9.85
2022-11-18T20:04:10.416Z,9.70
2022-11-18T20:06:37.619Z,9.17
2022-11-18T20:09:06.774Z,11.82
2022-11-18T20:11:33.823Z,11.70
2022-11-18T20:14:00.693Z,11.45
2022-11-18T20:16:27.494Z,8.57
2022-11-18T20:18:55.460Z,9.63
2022-11-18T20:21:24.405Z,13.20
2022-11-18T20:23:53.957Z,10.43
2022-11-18T20:26:22.277Z,12.13
2022-11-18T20:28:54.319Z,8.43
2022-11-18T20:31:23.345Z,12.70
2022-11-18T20:33:51.619Z,11.65
2022-11-18T20:36:20.354Z,11.45
2022-11-18T20:38:51.295Z,10.95
2022-11-18T20:41:19.731Z,11.32
2022-11-18T20:43:46.667Z,9.05
2022-11-18T20:46:19.866Z,10.25
2022-11-18T20:48:47.367Z,8.05
2022-11-18T20:51:15.981Z,9.80
2022-11-18T20:53:43.534Z,7.85
2022-11-18T20:56:13.251Z,8.48
2022-11-18T20:58:39.995Z,8.90
2022-11-18T21:01:10.882Z,9.55
2022-11-18T21:03:38.057Z,9.20
2022-11-18T21:06:09.599Z,9.68
2022-11-18T21:08:40.908Z,8.40
2022-11-18T21:11:09.451Z,8.05
2022-11-18T21:13:37.812Z,8.48
2022-11-18T21:16:05.081Z,10.63
2022-11-18T21:18:31.748Z,10.57
2022-11-18T21:20:58.457Z,9.32
2022-11-18T21:23:25.216Z,9.30
2022-11-18T21:25:51.893Z,8.07
2022-11-18T21:28:18.744Z,10.73
2022-11-18T21:30:46.793Z,9.23
2022-11-18T21:33:13.521Z,10.60
2022-11-18T21:35:40.193Z,8.57
2022-11-18T21:38:06.991Z,8.82
2022-11-18T21:40:33.678Z,7.75
2022-11-18T21:43:00.390Z,10.43
2022-11-18T21:45:27.121Z,10.48
2022-11-18T21:47:55.692Z,8.60
2022-11-18T21:50:22.468Z,10.82
2022-11-18T21:52:50.054Z,10.18
2022-11-18T21:55:16.979Z,9.80
2022-11-18T21:57:44.827Z,8.68
2022-11-18T22:00:12.604Z,10.60
2022-11-18T22:02:39.301Z,7.68
2022-11-18T22:05:08.477Z,8.55
2022-11-18T22:07:35.707Z,11.00
2022-11-18T22:10:02.599Z,9.85
2022-11-18T22:12:29.291Z,10.30
2022-11-18T22:14:55.959Z,10.40
2022-11-18T22:17:22.755Z,10.10
2022-11-18T22:19:49.489Z,10.20
2022-11-18T22:22:17.528Z,8.20
2022-11-18T22:24:44.260Z,8.25
2022-11-18T22:27:11.651Z,10.13
2022-11-18T22:29:38.484Z,8.35
2022-11-18T22:32:05.210Z,9.48
2022-11-18T22:34:31.929Z,9.70
2022-11-18T22:36:58.684Z,8.15
2022-11-18T22:39:26.808Z,5.63
2022-11-18T22:41:53.533Z,11.57
2022-11-18T22:44:20.263Z,11.18
2022-11-18T22:46:47.146Z,10.00
2022-11-18T22:49:13.834Z,12.40
2022-11-18T22:51:40.921Z,11.18
2022-11-18T22:56:55.930Z,10.20
2022-11-18T22:59:22.797Z,7.37
2022-11-18T23:01:50.764Z,11.63
2022-11-18T23:04:17.605Z,12.15
2022-11-18T23:06:44.277Z,12.63
2022-11-18T23:09:11.076Z,12.45
2022-11-18T23:11:37.784Z,11.18
2022-11-18T23:14:07.333Z,12.90
2022-11-18T23:16:39.238Z,11.85
2022-11-18T23:19:07.619Z,11.20
2022-11-18T23:21:35.077Z,12.25
2022-11-18T23:24:01.932Z,11.00
2022-11-18T23:26:28.758Z,10.52
2022-11-18T23:28:55.999Z,10.57
2022-11-18T23:31:26.400Z,12.30
2022-11-18T23:33:53.793Z,9.43
2022-11-18T23:36:20.493Z,11.38
2022-11-18T23:38:47.190Z,10.43
2022-11-18T23:41:16.603Z,11.57
2022-11-18T23:43:43.698Z,9.70
2022-11-18T23:46:10.384Z,10.73
2022-11-18T23:48:40.241Z,10.55
2022-11-18T23:51:08.783Z,10.75
2022-11-18T23:53:36.693Z,9.00
2022-11-18T23:56:05.663Z,9.98
